sensor_id;sensor_type;location;lat;lon;timestamp;P1;durP1;ratioP1;P2;durP2;ratioP2
70169;SDS011;57543;45.442;9.212;2023-04-03T00:01:09;10.32;;;6.25;;
70169;SDS011;57543;45.442;9.212;2023-04-03T00:04:13;11.13;;;6.25;;
70169;SDS011;57543;45.442;9.212;2023-04-03T00:07:16;11.87;;;6.63;;
70169;SDS011;57543;45.442;9.212;2023-04-03T00:10:20;12.65;;;6.90;;
70169;SDS011;57543;45.442;9.212;2023-04-03T00:13:25;12.40;;;6.53;;
70169;SDS011;57543;45.442;9.212;2023-04-03T00:16:28;11.13;;;6.55;;
70169;SDS011;57543;45.442;9.212;2023-04-03T00:19:32;10.30;;;6.45;;
70169;SDS011;57543;45.442;9.212;2023-04-03T00:22:36;12.13;;;6.43;;
70169;SDS011;57543;45.442;9.212;2023-04-03T00:25:40;11.95;;;6.15;;
70169;SDS011;57543;45.442;9.212;2023-04-03T00:28:43;9.85;;;6.20;;
70169;SDS011;57543;45.442;9.212;2023-04-03T00:31:49;11.25;;;6.97;;
70169;SDS011;57543;45.442;9.212;2023-04-03T00:34:53;12.88;;;6.70;;
70169;SDS011;57543;45.442;9.212;2023-04-03T00:37:57;10.97;;;6.50;;
70169;SDS011;57543;45.442;9.212;2023-04-03T00:41:01;11.52;;;6.90;;
70169;SDS011;57543;45.442;9.212;2023-04-03T00:44:21;13.25;;;6.95;;
70169;SDS011;57543;45.442;9.212;2023-04-03T00:47:25;12.27;;;6.82;;
70169;SDS011;57543;45.442;9.212;2023-04-03T00:50:30;12.45;;;6.65;;
70169;SDS011;57543;45.442;9.212;2023-04-03T00:53:36;14.80;;;7.80;;
70169;SDS011;57543;45.442;9.212;2023-04-03T00:56:44;12.35;;;7.13;;
70169;SDS011;57543;45.442;9.212;2023-04-03T00:59:49;11.68;;;7.13;;
70169;SDS011;57543;45.442;9.212;2023-04-03T01:02:55;14.88;;;7.32;;
70169;SDS011;57543;45.442;9.212;2023-04-03T01:05:58;16.70;;;8.32;;
70169;SDS011;57543;45.442;9.212;2023-04-03T01:09:03;12.87;;;7.87;;
70169;SDS011;57543;45.442;9.212;2023-04-03T01:12:21;14.50;;;8.15;;
70169;SDS011;57543;45.442;9.212;2023-04-03T01:15:27;13.23;;;7.78;;
70169;SDS011;57543;45.442;9.212;2023-04-03T01:18:38;12.23;;;7.78;;
70169;SDS011;57543;45.442;9.212;2023-04-03T01:24:50;15.90;;;8.00;;
70169;SDS011;57543;45.442;9.212;2023-04-03T01:27:56;12.65;;;7.75;;
70169;SDS011;57543;45.442;9.212;2023-04-03T01:34:27;13.25;;;7.57;;
70169;SDS011;57543;45.442;9.212;2023-04-03T01:37:33;12.10;;;7.15;;
70169;SDS011;57543;45.442;9.212;2023-04-03T01:40:36;16.00;;;7.53;;
70169;SDS011;57543;45.442;9.212;2023-04-03T01:43:40;16.10;;;8.40;;
70169;SDS011;57543;45.442;9.212;2023-04-03T01:46:44;13.63;;;7.20;;
70169;SDS011;57543;45.442;9.212;2023-04-03T01:49:48;14.23;;;7.05;;
70169;SDS011;57543;45.442;9.212;2023-04-03T01:52:52;14.73;;;7.10;;
70169;SDS011;57543;45.442;9.212;2023-04-03T01:55:55;14.77;;;7.37;;
70169;SDS011;57543;45.442;9.212;2023-04-03T01:58:59;11.02;;;6.82;;
70169;SDS011;57543;45.442;9.212;2023-04-03T02:02:02;12.50;;;7.40;;
70169;SDS011;57543;45.442;9.212;2023-04-03T02:05:06;13.20;;;6.85;;
70169;SDS011;57543;45.442;9.212;2023-04-03T02:08:10;12.35;;;7.25;;
70169;SDS011;57543;45.442;9.212;2023-04-03T02:11:14;13.80;;;7.63;;
70169;SDS011;57543;45.442;9.212;2023-04-03T02:14:18;13.68;;;7.45;;
70169;SDS011;57543;45.442;9.212;2023-04-03T02:17:22;14.73;;;7.60;;
70169;SDS011;57543;45.442;9.212;2023-04-03T02:20:25;11.13;;;7.32;;
70169;SDS011;57543;45.442;9.212;2023-04-03T02:23:29;12.38;;;7.55;;
70169;SDS011;57543;45.442;9.212;2023-04-03T02:26:33;13.13;;;7.97;;
70169;SDS011;57543;45.442;9.212;2023-04-03T02:29:37;14.27;;;7.88;;
70169;SDS011;57543;45.442;9.212;2023-04-03T02:32:42;11.23;;;7.28;;
70169;SDS011;57543;45.442;9.212;2023-04-03T02:35:46;15.90;;;7.82;;
70169;SDS011;57543;45.442;9.212;2023-04-03T02:38:57;13.77;;;7.88;;
70169;SDS011;57543;45.442;9.212;2023-04-03T02:42:01;13.73;;;7.90;;
70169;SDS011;57543;45.442;9.212;2023-04-03T02:45:06;11.70;;;7.45;;
70169;SDS011;57543;45.442;9.212;2023-04-03T02:48:10;13.13;;;8.25;;
70169;SDS011;57543;45.442;9.212;2023-04-03T02:51:13;14.00;;;7.65;;
70169;SDS011;57543;45.442;9.212;2023-04-03T02:54:17;14.13;;;8.07;;
70169;SDS011;57543;45.442;9.212;2023-04-03T02:57:25;16.67;;;8.07;;
70169;SDS011;57543;45.442;9.212;2023-04-03T03:00:29;16.23;;;8.43;;
70169;SDS011;57543;45.442;9.212;2023-04-03T03:03:33;13.50;;;7.30;;
70169;SDS011;57543;45.442;9.212;2023-04-03T03:06:36;13.13;;;7.50;;
70169;SDS011;57543;45.442;9.212;2023-04-03T03:09:40;13.63;;;8.55;;
70169;SDS011;57543;45.442;9.212;2023-04-03T03:12:44;11.93;;;7.50;;
70169;SDS011;57543;45.442;9.212;2023-04-03T03:15:48;11.18;;;7.68;;
70169;SDS011;57543;45.442;9.212;2023-04-03T03:18:51;14.88;;;7.63;;
70169;SDS011;57543;45.442;9.212;2023-04-03T03:21:55;14.18;;;7.68;;
70169;SDS011;57543;45.442;9.212;2023-04-03T03:24:59;13.88;;;8.10;;
70169;SDS011;57543;45.442;9.212;2023-04-03T03:28:04;13.73;;;8.30;;
70169;SDS011;57543;45.442;9.212;2023-04-03T03:31:08;12.93;;;9.23;;
70169;SDS011;57543;45.442;9.212;2023-04-03T03:34:15;13.63;;;7.95;;
70169;SDS011;57543;45.442;9.212;2023-04-03T03:37:18;13.65;;;8.32;;
70169;SDS011;57543;45.442;9.212;2023-04-03T03:40:22;14.93;;;8.30;;
70169;SDS011;57543;45.442;9.212;2023-04-03T03:43:25;16.47;;;8.03;;
70169;SDS011;57543;45.442;9.212;2023-04-03T03:46:30;15.45;;;8.63;;
70169;SDS011;57543;45.442;9.212;2023-04-03T03:49:34;14.98;;;7.88;;
70169;SDS011;57543;45.442;9.212;2023-04-03T03:52:38;12.77;;;8.35;;
70169;SDS011;57543;45.442;9.212;2023-04-03T03:55:42;14.77;;;8.68;;
70169;SDS011;57543;45.442;9.212;2023-04-03T03:58:46;13.87;;;8.10;;
70169;SDS011;57543;45.442;9.212;2023-04-03T04:01:51;14.63;;;8.85;;
70169;SDS011;57543;45.442;9.212;2023-04-03T04:04:55;12.73;;;7.90;;
70169;SDS011;57543;45.442;9.212;2023-04-03T04:07:59;14.73;;;8.57;;
70169;SDS011;57543;45.442;9.212;2023-04-03T04:11:03;13.95;;;8.57;;
70169;SDS011;57543;45.442;9.212;2023-04-03T04:14:08;14.37;;;8.30;;
70169;SDS011;57543;45.442;9.212;2023-04-03T04:17:14;13.40;;;8.10;;
70169;SDS011;57543;45.442;9.212;2023-04-03T04:20:18;14.35;;;8.50;;
70169;SDS011;57543;45.442;9.212;2023-04-03T04:23:24;14.30;;;8.20;;
70169;SDS011;57543;45.442;9.212;2023-04-03T04:26:28;13.98;;;8.77;;
70169;SDS011;57543;45.442;9.212;2023-04-03T04:29:32;15.77;;;9.50;;
70169;SDS011;57543;45.442;9.212;2023-04-03T04:32:39;16.42;;;9.52;;
70169;SDS011;57543;45.442;9.212;2023-04-03T04:35:43;14.48;;;8.85;;
70169;SDS011;57543;45.442;9.212;2023-04-03T04:38:48;14.13;;;9.15;;
70169;SDS011;57543;45.442;9.212;2023-04-03T04:41:52;16.13;;;9.50;;
70169;SDS011;57543;45.442;9.212;2023-04-03T04:44:56;17.03;;;10.33;;
70169;SDS011;57543;45.442;9.212;2023-04-03T04:48:00;18.45;;;10.30;;
70169;SDS011;57543;45.442;9.212;2023-04-03T04:51:04;19.38;;;11.70;;
70169;SDS011;57543;45.442;9.212;2023-04-03T04:54:08;18.48;;;10.30;;
70169;SDS011;57543;45.442;9.212;2023-04-03T04:57:11;18.80;;;10.23;;
70169;SDS011;57543;45.442;9.212;2023-04-03T05:00:15;19.87;;;11.00;;
70169;SDS011;57543;45.442;9.212;2023-04-03T05:03:20;17.83;;;10.27;;
70169;SDS011;57543;45.442;9.212;2023-04-03T05:06:24;18.48;;;10.10;;
70169;SDS011;57543;45.442;9.212;2023-04-03T05:09:28;18.58;;;10.18;;
70169;SDS011;57543;45.442;9.212;2023-04-03T05:12:32;17.08;;;10.05;;
70169;SDS011;57543;45.442;9.212;2023-04-03T05:15:38;19.43;;;9.87;;
70169;SDS011;57543;45.442;9.212;2023-04-03T05:18:42;15.73;;;10.25;;
70169;SDS011;57543;45.442;9.212;2023-04-03T05:21:52;15.55;;;9.80;;
70169;SDS011;57543;45.442;9.212;2023-04-03T05:24:56;17.20;;;9.93;;
70169;SDS011;57543;45.442;9.212;2023-04-03T05:28:00;23.58;;;10.25;;
70169;SDS011;57543;45.442;9.212;2023-04-03T05:31:04;14.93;;;9.30;;
70169;SDS011;57543;45.442;9.212;2023-04-03T05:34:12;16.52;;;9.27;;
70169;SDS011;57543;45.442;9.212;2023-04-03T05:37:17;16.58;;;9.77;;
70169;SDS011;57543;45.442;9.212;2023-04-03T05:40:20;16.33;;;9.43;;
70169;SDS011;57543;45.442;9.212;2023-04-03T05:43:28;15.55;;;8.85;;
70169;SDS011;57543;45.442;9.212;2023-04-03T05:46:32;15.63;;;9.40;;
70169;SDS011;57543;45.442;9.212;2023-04-03T05:49:39;17.65;;;10.00;;
70169;SDS011;57543;45.442;9.212;2023-04-03T05:52:45;16.05;;;9.32;;
70169;SDS011;57543;45.442;9.212;2023-04-03T05:55:52;15.32;;;9.10;;
70169;SDS011;57543;45.442;9.212;2023-04-03T05:58:58;15.70;;;9.27;;
70169;SDS011;57543;45.442;9.212;2023-04-03T06:02:02;14.30;;;9.33;;
70169;SDS011;57543;45.442;9.212;2023-04-03T06:05:06;16.33;;;10.18;;
70169;SDS011;57543;45.442;9.212;2023-04-03T06:08:11;18.85;;;10.30;;
70169;SDS011;57543;45.442;9.212;2023-04-03T06:11:15;17.20;;;9.32;;
70169;SDS011;57543;45.442;9.212;2023-04-03T06:14:19;16.38;;;10.13;;
70169;SDS011;57543;45.442;9.212;2023-04-03T06:17:23;19.00;;;10.27;;
70169;SDS011;57543;45.442;9.212;2023-04-03T06:20:26;16.33;;;10.05;;
70169;SDS011;57543;45.442;9.212;2023-04-03T06:23:31;17.42;;;11.32;;
70169;SDS011;57543;45.442;9.212;2023-04-03T06:26:36;19.40;;;10.10;;
70169;SDS011;57543;45.442;9.212;2023-04-03T06:29:39;18.83;;;10.20;;
70169;SDS011;57543;45.442;9.212;2023-04-03T06:32:43;13.40;;;8.30;;
70169;SDS011;57543;45.442;9.212;2023-04-03T06:35:46;13.07;;;8.20;;
70169;SDS011;57543;45.442;9.212;2023-04-03T06:38:50;17.85;;;8.77;;
70169;SDS011;57543;45.442;9.212;2023-04-03T06:41:54;12.63;;;7.75;;
70169;SDS011;57543;45.442;9.212;2023-04-03T06:45:07;12.18;;;6.82;;
70169;SDS011;57543;45.442;9.212;2023-04-03T06:48:10;11.70;;;6.83;;
70169;SDS011;57543;45.442;9.212;2023-04-03T06:51:17;14.57;;;6.55;;
70169;SDS011;57543;45.442;9.212;2023-04-03T06:54:22;10.32;;;6.25;;
70169;SDS011;57543;45.442;9.212;2023-04-03T06:57:26;9.85;;;6.00;;
70169;SDS011;57543;45.442;9.212;2023-04-03T07:00:30;11.10;;;6.40;;
70169;SDS011;57543;45.442;9.212;2023-04-03T07:03:34;10.30;;;5.60;;
70169;SDS011;57543;45.442;9.212;2023-04-03T07:06:39;10.38;;;5.70;;
70169;SDS011;57543;45.442;9.212;2023-04-03T07:09:43;15.23;;;6.05;;
70169;SDS011;57543;45.442;9.212;2023-04-03T07:12:47;11.40;;;5.97;;
70169;SDS011;57543;45.442;9.212;2023-04-03T07:15:51;10.73;;;5.82;;
70169;SDS011;57543;45.442;9.212;2023-04-03T07:18:54;10.07;;;5.93;;
70169;SDS011;57543;45.442;9.212;2023-04-03T07:21:58;10.65;;;6.50;;
70169;SDS011;57543;45.442;9.212;2023-04-03T07:25:01;12.25;;;6.53;;
70169;SDS011;57543;45.442;9.212;2023-04-03T07:28:05;11.07;;;6.72;;
70169;SDS011;57543;45.442;9.212;2023-04-03T07:31:11;11.20;;;6.00;;
70169;SDS011;57543;45.442;9.212;2023-04-03T07:34:16;12.17;;;6.90;;
70169;SDS011;57543;45.442;9.212;2023-04-03T07:37:19;11.60;;;6.13;;
70169;SDS011;57543;45.442;9.212;2023-04-03T07:40:23;11.75;;;5.22;;
70169;SDS011;57543;45.442;9.212;2023-04-03T07:43:28;12.18;;;7.07;;
70169;SDS011;57543;45.442;9.212;2023-04-03T07:46:32;11.30;;;6.68;;
70169;SDS011;57543;45.442;9.212;2023-04-03T07:49:35;10.37;;;6.60;;
70169;SDS011;57543;45.442;9.212;2023-04-03T07:52:42;11.93;;;6.65;;
70169;SDS011;57543;45.442;9.212;2023-04-03T07:55:47;11.38;;;7.07;;
70169;SDS011;57543;45.442;9.212;2023-04-03T07:58:52;13.18;;;6.88;;
70169;SDS011;57543;45.442;9.212;2023-04-03T08:01:56;9.45;;;5.80;;
70169;SDS011;57543;45.442;9.212;2023-04-03T08:05:00;12.13;;;6.77;;
70169;SDS011;57543;45.442;9.212;2023-04-03T08:08:04;12.45;;;6.85;;
70169;SDS011;57543;45.442;9.212;2023-04-03T08:11:09;10.80;;;6.90;;
70169;SDS011;57543;45.442;9.212;2023-04-03T08:14:13;15.13;;;7.32;;
70169;SDS011;57543;45.442;9.212;2023-04-03T08:17:21;13.38;;;7.18;;
70169;SDS011;57543;45.442;9.212;2023-04-03T08:20:25;11.60;;;6.90;;
70169;SDS011;57543;45.442;9.212;2023-04-03T08:23:29;10.02;;;6.45;;
70169;SDS011;57543;45.442;9.212;2023-04-03T08:26:33;12.10;;;6.53;;
70169;SDS011;57543;45.442;9.212;2023-04-03T08:29:37;11.45;;;6.53;;
70169;SDS011;57543;45.442;9.212;2023-04-03T08:32:41;12.40;;;6.72;;
70169;SDS011;57543;45.442;9.212;2023-04-03T08:35:47;12.40;;;7.53;;
70169;SDS011;57543;45.442;9.212;2023-04-03T08:38:52;16.48;;;9.45;;
70169;SDS011;57543;45.442;9.212;2023-04-03T08:41:57;11.32;;;6.85;;
70169;SDS011;57543;45.442;9.212;2023-04-03T08:45:06;16.92;;;6.43;;
70169;SDS011;57543;45.442;9.212;2023-04-03T08:48:29;11.70;;;6.10;;
70169;SDS011;57543;45.442;9.212;2023-04-03T08:51:36;9.43;;;6.17;;
70169;SDS011;57543;45.442;9.212;2023-04-03T08:54:48;8.80;;;5.30;;
70169;SDS011;57543;45.442;9.212;2023-04-03T08:58:04;10.32;;;5.88;;
70169;SDS011;57543;45.442;9.212;2023-04-03T09:01:19;10.48;;;5.93;;
70169;SDS011;57543;45.442;9.212;2023-04-03T09:04:24;10.55;;;6.40;;
70169;SDS011;57543;45.442;9.212;2023-04-03T09:07:39;10.47;;;6.40;;
70169;SDS011;57543;45.442;9.212;2023-04-03T09:10:47;10.88;;;6.47;;
70169;SDS011;57543;45.442;9.212;2023-04-03T09:14:07;10.48;;;6.95;;
70169;SDS011;57543;45.442;9.212;2023-04-03T09:24:15;9.33;;;6.27;;
70169;SDS011;57543;45.442;9.212;2023-04-03T09:27:20;9.52;;;6.28;;
70169;SDS011;57543;45.442;9.212;2023-04-03T09:30:25;9.70;;;5.60;;
70169;SDS011;57543;45.442;9.212;2023-04-03T09:33:29;10.25;;;6.40;;
70169;SDS011;57543;45.442;9.212;2023-04-03T09:36:37;10.00;;;5.25;;
70169;SDS011;57543;45.442;9.212;2023-04-03T09:39:52;8.20;;;5.47;;
70169;SDS011;57543;45.442;9.212;2023-04-03T09:42:58;9.07;;;6.00;;
70169;SDS011;57543;45.442;9.212;2023-04-03T09:46:28;10.75;;;5.50;;
70169;SDS011;57543;45.442;9.212;2023-04-03T09:49:35;7.63;;;5.10;;
70169;SDS011;57543;45.442;9.212;2023-04-03T09:52:40;9.40;;;6.03;;
70169;SDS011;57543;45.442;9.212;2023-04-03T09:55:44;6.97;;;4.13;;
70169;SDS011;57543;45.442;9.212;2023-04-03T10:02:03;6.38;;;4.32;;
70169;SDS011;57543;45.442;9.212;2023-04-03T10:05:34;6.97;;;4.40;;
70169;SDS011;57543;45.442;9.212;2023-04-03T10:08:39;7.47;;;4.32;;
70169;SDS011;57543;45.442;9.212;2023-04-03T10:15:11;6.22;;;4.30;;
70169;SDS011;57543;45.442;9.212;2023-04-03T10:21:54;7.72;;;4.32;;
70169;SDS011;57543;45.442;9.212;2023-04-03T10:25:03;6.88;;;4.32;;
70169;SDS011;57543;45.442;9.212;2023-04-03T10:31:54;7.97;;;3.80;;
70169;SDS011;57543;45.442;9.212;2023-04-03T10:36:11;6.60;;;4.03;;
70169;SDS011;57543;45.442;9.212;2023-04-03T10:38:51;6.68;;;4.60;;
70169;SDS011;57543;45.442;9.212;2023-04-03T10:42:09;6.82;;;4.72;;
70169;SDS011;57543;45.442;9.212;2023-04-03T10:45:24;7.23;;;4.83;;
70169;SDS011;57543;45.442;9.212;2023-04-03T10:51:55;6.47;;;3.92;;
70169;SDS011;57543;45.442;9.212;2023-04-03T11:01:42;7.03;;;3.70;;
70169;SDS011;57543;45.442;9.212;2023-04-03T11:04:49;6.65;;;4.20;;
70169;SDS011;57543;45.442;9.212;2023-04-03T11:07:57;10.00;;;4.68;;
70169;SDS011;57543;45.442;9.212;2023-04-03T11:11:16;8.80;;;4.50;;
70169;SDS011;57543;45.442;9.212;2023-04-03T11:14:26;9.27;;;4.10;;
70169;SDS011;57543;45.442;9.212;2023-04-03T11:17:43;6.20;;;3.87;;
70169;SDS011;57543;45.442;9.212;2023-04-03T11:21:04;7.88;;;4.90;;
70169;SDS011;57543;45.442;9.212;2023-04-03T11:24:22;5.80;;;3.47;;
70169;SDS011;57543;45.442;9.212;2023-04-03T11:27:32;6.53;;;4.50;;
70169;SDS011;57543;45.442;9.212;2023-04-03T11:30:57;6.60;;;4.18;;
70169;SDS011;57543;45.442;9.212;2023-04-03T11:37:48;5.80;;;3.30;;
70169;SDS011;57543;45.442;9.212;2023-04-03T11:40:57;7.10;;;4.10;;
70169;SDS011;57543;45.442;9.212;2023-04-03T11:44:12;6.05;;;4.20;;
70169;SDS011;57543;45.442;9.212;2023-04-03T11:47:43;7.45;;;4.18;;
70169;SDS011;57543;45.442;9.212;2023-04-03T11:57:46;7.10;;;3.88;;
70169;SDS011;57543;45.442;9.212;2023-04-03T12:01:04;6.75;;;3.22;;
70169;SDS011;57543;45.442;9.212;2023-04-03T12:04:13;5.10;;;3.40;;
70169;SDS011;57543;45.442;9.212;2023-04-03T12:07:18;6.07;;;3.30;;
70169;SDS011;57543;45.442;9.212;2023-04-03T12:10:23;5.72;;;2.90;;
70169;SDS011;57543;45.442;9.212;2023-04-03T12:13:26;5.22;;;3.28;;
70169;SDS011;57543;45.442;9.212;2023-04-03T12:19:40;4.63;;;2.65;;
70169;SDS011;57543;45.442;9.212;2023-04-03T12:26:28;5.88;;;2.70;;
70169;SDS011;57543;45.442;9.212;2023-04-03T12:29:38;4.40;;;2.70;;
70169;SDS011;57543;45.442;9.212;2023-04-03T12:36:33;5.07;;;3.33;;
70169;SDS011;57543;45.442;9.212;2023-04-03T12:46:20;5.82;;;2.55;;
70169;SDS011;57543;45.442;9.212;2023-04-03T12:52:33;11.50;;;3.40;;
70169;SDS011;57543;45.442;9.212;2023-04-03T12:55:43;4.30;;;2.60;;
70169;SDS011;57543;45.442;9.212;2023-04-03T12:58:47;6.75;;;3.42;;
70169;SDS011;57543;45.442;9.212;2023-04-03T13:01:59;5.07;;;2.90;;
70169;SDS011;57543;45.442;9.212;2023-04-03T13:05:05;6.47;;;2.92;;
70169;SDS011;57543;45.442;9.212;2023-04-03T13:08:12;4.22;;;2.60;;
70169;SDS011;57543;45.442;9.212;2023-04-03T13:11:19;6.73;;;2.90;;
70169;SDS011;57543;45.442;9.212;2023-04-03T13:14:25;4.43;;;2.78;;
70169;SDS011;57543;45.442;9.212;2023-04-03T13:17:31;5.88;;;2.67;;
70169;SDS011;57543;45.442;9.212;2023-04-03T13:20:35;5.93;;;2.95;;
70169;SDS011;57543;45.442;9.212;2023-04-03T13:23:40;5.28;;;3.05;;
70169;SDS011;57543;45.442;9.212;2023-04-03T13:26:48;5.20;;;2.40;;
70169;SDS011;57543;45.442;9.212;2023-04-03T13:29:54;5.13;;;2.40;;
70169;SDS011;57543;45.442;9.212;2023-04-03T13:33:02;5.40;;;3.00;;
70169;SDS011;57543;45.442;9.212;2023-04-03T13:36:16;4.97;;;2.90;;
70169;SDS011;57543;45.442;9.212;2023-04-03T13:39:24;3.95;;;2.60;;
70169;SDS011;57543;45.442;9.212;2023-04-03T13:42:35;6.57;;;2.80;;
70169;SDS011;57543;45.442;9.212;2023-04-03T13:45:42;4.75;;;3.05;;
70169;SDS011;57543;45.442;9.212;2023-04-03T13:49:00;6.43;;;2.90;;
70169;SDS011;57543;45.442;9.212;2023-04-03T13:52:32;4.43;;;2.50;;
70169;SDS011;57543;45.442;9.212;2023-04-03T13:55:53;5.10;;;3.08;;
70169;SDS011;57543;45.442;9.212;2023-04-03T14:02:12;4.00;;;2.33;;
70169;SDS011;57543;45.442;9.212;2023-04-03T14:05:33;4.38;;;2.65;;
70169;SDS011;57543;45.442;9.212;2023-04-03T14:08:37;6.70;;;3.03;;
70169;SDS011;57543;45.442;9.212;2023-04-03T14:11:40;5.10;;;2.88;;
70169;SDS011;57543;45.442;9.212;2023-04-03T14:14:45;6.70;;;2.60;;
70169;SDS011;57543;45.442;9.212;2023-04-03T14:17:50;5.88;;;2.78;;
70169;SDS011;57543;45.442;9.212;2023-04-03T14:20:57;6.28;;;2.30;;
70169;SDS011;57543;45.442;9.212;2023-04-03T14:24:01;5.65;;;2.50;;
70169;SDS011;57543;45.442;9.212;2023-04-03T14:27:05;7.75;;;2.65;;
70169;SDS011;57543;45.442;9.212;2023-04-03T14:30:24;6.17;;;2.47;;
70169;SDS011;57543;45.442;9.212;2023-04-03T14:33:31;3.90;;;2.30;;
70169;SDS011;57543;45.442;9.212;2023-04-03T14:36:38;4.28;;;2.33;;
70169;SDS011;57543;45.442;9.212;2023-04-03T14:39:44;4.28;;;2.70;;
70169;SDS011;57543;45.442;9.212;2023-04-03T14:42:48;7.63;;;2.70;;
70169;SDS011;57543;45.442;9.212;2023-04-03T14:45:52;6.50;;;3.20;;
70169;SDS011;57543;45.442;9.212;2023-04-03T14:48:56;7.82;;;3.38;;
70169;SDS011;57543;45.442;9.212;2023-04-03T14:52:00;7.45;;;3.40;;
70169;SDS011;57543;45.442;9.212;2023-04-03T14:55:04;5.65;;;2.80;;
70169;SDS011;57543;45.442;9.212;2023-04-03T14:58:12;5.40;;;3.15;;
70169;SDS011;57543;45.442;9.212;2023-04-03T15:01:17;9.37;;;3.03;;
70169;SDS011;57543;45.442;9.212;2023-04-03T15:04:22;5.85;;;2.88;;
70169;SDS011;57543;45.442;9.212;2023-04-03T15:07:26;5.13;;;2.83;;
70169;SDS011;57543;45.442;9.212;2023-04-03T15:10:31;5.03;;;2.70;;
70169;SDS011;57543;45.442;9.212;2023-04-03T15:13:36;4.35;;;2.80;;
70169;SDS011;57543;45.442;9.212;2023-04-03T15:16:40;5.00;;;2.97;;
70169;SDS011;57543;45.442;9.212;2023-04-03T15:19:44;7.22;;;3.08;;
70169;SDS011;57543;45.442;9.212;2023-04-03T15:22:48;6.20;;;2.90;;
70169;SDS011;57543;45.442;9.212;2023-04-03T15:25:52;6.43;;;2.72;;
70169;SDS011;57543;45.442;9.212;2023-04-03T15:28:57;5.05;;;2.83;;
70169;SDS011;57543;45.442;9.212;2023-04-03T15:32:01;6.30;;;2.83;;
70169;SDS011;57543;45.442;9.212;2023-04-03T15:35:17;6.83;;;3.13;;
70169;SDS011;57543;45.442;9.212;2023-04-03T15:38:21;5.43;;;2.95;;
70169;SDS011;57543;45.442;9.212;2023-04-03T15:41:25;5.68;;;3.10;;
70169;SDS011;57543;45.442;9.212;2023-04-03T15:44:28;4.90;;;2.78;;
70169;SDS011;57543;45.442;9.212;2023-04-03T15:47:32;5.75;;;2.95;;
70169;SDS011;57543;45.442;9.212;2023-04-03T15:50:36;7.40;;;3.00;;
70169;SDS011;57543;45.442;9.212;2023-04-03T15:53:40;7.07;;;3.40;;
70169;SDS011;57543;45.442;9.212;2023-04-03T15:56:44;7.60;;;2.85;;
70169;SDS011;57543;45.442;9.212;2023-04-03T15:59:48;6.28;;;2.95;;
70169;SDS011;57543;45.442;9.212;2023-04-03T16:02:52;11.60;;;3.10;;
70169;SDS011;57543;45.442;9.212;2023-04-03T16:05:58;7.20;;;3.03;;
70169;SDS011;57543;45.442;9.212;2023-04-03T16:09:02;6.72;;;3.30;;
70169;SDS011;57543;45.442;9.212;2023-04-03T16:12:07;5.47;;;2.90;;
70169;SDS011;57543;45.442;9.212;2023-04-03T16:15:11;6.95;;;3.10;;
70169;SDS011;57543;45.442;9.212;2023-04-03T16:18:14;6.78;;;2.80;;
70169;SDS011;57543;45.442;9.212;2023-04-03T16:21:17;5.53;;;2.70;;
70169;SDS011;57543;45.442;9.212;2023-04-03T16:24:21;6.50;;;2.70;;
70169;SDS011;57543;45.442;9.212;2023-04-03T16:27:25;5.70;;;2.63;;
70169;SDS011;57543;45.442;9.212;2023-04-03T16:30:33;8.82;;;2.85;;
70169;SDS011;57543;45.442;9.212;2023-04-03T16:33:37;9.05;;;3.33;;
70169;SDS011;57543;45.442;9.212;2023-04-03T16:36:41;8.73;;;2.90;;
70169;SDS011;57543;45.442;9.212;2023-04-03T16:39:45;9.77;;;3.10;;
70169;SDS011;57543;45.442;9.212;2023-04-03T16:42:48;6.63;;;2.83;;
70169;SDS011;57543;45.442;9.212;2023-04-03T16:45:52;8.32;;;3.00;;
70169;SDS011;57543;45.442;9.212;2023-04-03T16:48:56;6.13;;;2.65;;
70169;SDS011;57543;45.442;9.212;2023-04-03T16:52:03;5.70;;;2.73;;
70169;SDS011;57543;45.442;9.212;2023-04-03T16:55:08;7.70;;;2.80;;
70169;SDS011;57543;45.442;9.212;2023-04-03T16:58:12;8.63;;;2.70;;
70169;SDS011;57543;45.442;9.212;2023-04-03T17:01:17;7.43;;;3.13;;
70169;SDS011;57543;45.442;9.212;2023-04-03T17:04:21;5.38;;;2.80;;
70169;SDS011;57543;45.442;9.212;2023-04-03T17:07:25;6.30;;;2.50;;
70169;SDS011;57543;45.442;9.212;2023-04-03T17:10:29;9.05;;;2.80;;
70169;SDS011;57543;45.442;9.212;2023-04-03T17:13:33;6.95;;;3.17;;
70169;SDS011;57543;45.442;9.212;2023-04-03T17:16:37;6.90;;;2.60;;
70169;SDS011;57543;45.442;9.212;2023-04-03T17:19:41;6.50;;;2.90;;
70169;SDS011;57543;45.442;9.212;2023-04-03T17:22:45;5.40;;;2.40;;
70169;SDS011;57543;45.442;9.212;2023-04-03T17:25:49;5.78;;;2.78;;
70169;SDS011;57543;45.442;9.212;2023-04-03T17:28:53;5.45;;;2.40;;
70169;SDS011;57543;45.442;9.212;2023-04-03T17:31:56;6.00;;;2.50;;
70169;SDS011;57543;45.442;9.212;2023-04-03T17:35:00;8.15;;;2.78;;
70169;SDS011;57543;45.442;9.212;2023-04-03T17:38:04;7.30;;;2.40;;
70169;SDS011;57543;45.442;9.212;2023-04-03T17:41:08;8.57;;;2.40;;
70169;SDS011;57543;45.442;9.212;2023-04-03T17:44:12;9.07;;;2.53;;
70169;SDS011;57543;45.442;9.212;2023-04-03T17:47:15;6.18;;;2.50;;
70169;SDS011;57543;45.442;9.212;2023-04-03T17:50:19;7.45;;;2.60;;
70169;SDS011;57543;45.442;9.212;2023-04-03T17:53:23;5.47;;;2.60;;
70169;SDS011;57543;45.442;9.212;2023-04-03T17:56:27;7.05;;;2.85;;
70169;SDS011;57543;45.442;9.212;2023-04-03T17:59:30;7.93;;;2.60;;
70169;SDS011;57543;45.442;9.212;2023-04-03T18:02:34;5.35;;;2.58;;
70169;SDS011;57543;45.442;9.212;2023-04-03T18:05:38;7.43;;;2.80;;
70169;SDS011;57543;45.442;9.212;2023-04-03T18:08:43;6.67;;;3.00;;
70169;SDS011;57543;45.442;9.212;2023-04-03T18:11:50;5.72;;;2.85;;
70169;SDS011;57543;45.442;9.212;2023-04-03T18:14:56;6.10;;;2.70;;
70169;SDS011;57543;45.442;9.212;2023-04-03T18:18:01;5.82;;;2.63;;
70169;SDS011;57543;45.442;9.212;2023-04-03T18:21:05;5.60;;;2.72;;
70169;SDS011;57543;45.442;9.212;2023-04-03T18:24:12;8.07;;;3.20;;
70169;SDS011;57543;45.442;9.212;2023-04-03T18:27:18;5.70;;;2.90;;
70169;SDS011;57543;45.442;9.212;2023-04-03T18:30:27;6.57;;;3.10;;
70169;SDS011;57543;45.442;9.212;2023-04-03T18:33:31;6.68;;;2.58;;
70169;SDS011;57543;45.442;9.212;2023-04-03T18:36:36;7.57;;;3.17;;
70169;SDS011;57543;45.442;9.212;2023-04-03T18:39:40;5.43;;;3.10;;
70169;SDS011;57543;45.442;9.212;2023-04-03T18:42:43;9.10;;;3.17;;
70169;SDS011;57543;45.442;9.212;2023-04-03T18:45:47;6.68;;;3.20;;
70169;SDS011;57543;45.442;9.212;2023-04-03T18:48:52;8.15;;;3.45;;
70169;SDS011;57543;45.442;9.212;2023-04-03T18:51:56;7.30;;;3.00;;
70169;SDS011;57543;45.442;9.212;2023-04-03T18:55:00;5.47;;;3.00;;
70169;SDS011;57543;45.442;9.212;2023-04-03T18:58:04;5.85;;;2.80;;
70169;SDS011;57543;45.442;9.212;2023-04-03T19:01:08;6.88;;;3.20;;
70169;SDS011;57543;45.442;9.212;2023-04-03T19:04:13;12.98;;;3.40;;
70169;SDS011;57543;45.442;9.212;2023-04-03T19:07:18;6.88;;;2.95;;
70169;SDS011;57543;45.442;9.212;2023-04-03T19:10:23;7.10;;;2.90;;
70169;SDS011;57543;45.442;9.212;2023-04-03T19:13:26;10.30;;;3.72;;
70169;SDS011;57543;45.442;9.212;2023-04-03T19:16:30;8.52;;;2.92;;
70169;SDS011;57543;45.442;9.212;2023-04-03T19:19:35;7.18;;;2.97;;
70169;SDS011;57543;45.442;9.212;2023-04-03T19:22:39;6.93;;;2.75;;
70169;SDS011;57543;45.442;9.212;2023-04-03T19:25:43;8.20;;;3.17;;
70169;SDS011;57543;45.442;9.212;2023-04-03T19:28:47;6.38;;;3.05;;
70169;SDS011;57543;45.442;9.212;2023-04-03T19:31:52;5.95;;;2.92;;
70169;SDS011;57543;45.442;9.212;2023-04-03T19:34:57;6.25;;;2.50;;
70169;SDS011;57543;45.442;9.212;2023-04-03T19:38:01;7.10;;;3.13;;
70169;SDS011;57543;45.442;9.212;2023-04-03T19:41:26;9.10;;;2.77;;
70169;SDS011;57543;45.442;9.212;2023-04-03T19:44:30;6.72;;;2.72;;